KDFW/DFW METAR and TAF weather

Enter ICAO airport designator
Station Type Date Time Source
KDFW METAR 2022/05/24 11:53 UTC NOAA

KDFW 241153Z 13011KT 10SM OVC012 19/18 A2980 RMK AO2 RAE49 SLP086 P0000 60000 70001 T01940178 10200 20194 58008


Station Type Date Time Source
KDFW Decoded METAR 2022/05/24 11:53 UTC NOAA

DALLAS/FT. WORTH INTERNATIONAL AIRPORT , TX, United States (KDFW) 32-54N 097-02W 174M
May 24, 2022 - 07:53 AM EDT / 2022.05.24 1153 UTC
Wind: from the SE (130 degrees) at 13 MPH (11 KT):0
Visibility: 10 mile(s):0
Sky conditions: overcast
Precipitation last hour: A trace
Temperature: 66.9 F (19.4 C)
Dew Point: 64.0 F (17.8 C)
Relative Humidity: 90%
Pressure (altimeter): 29.8 in. Hg (1009 hPa)
Pressure tendency: 0.02 inches (0.8 hPa) lower than three hours ago
ob: KDFW 241153Z 13011KT 10SM OVC012 19/18 A2980 RMK AO2 RAE49 SLP086 P0000 60000 70001 T01940178 10200 20194 58008
cycle: 12

Station Type Date Time Source
KDFW TAF 2022/05/24 12:22 UTC NOAA

TAF KDFW 241120Z 2412/2518 14012KT P6SM VCSH BKN009 OVC020
FM241600 16015G25KT P6SM OVC025
FM242000 17016KT P6SM VCTS BKN035CB
TEMPO 2423/2503 31015G25KT 2SM +TSRA BKN020CB
FM250600 31015KT 6SM -RA BKN025
FM250900 30010KT P6SM BKN015

Example: see airport list